Time;durP1;ratioP1;P1;durP2;ratioP2;P2;SDS_P1;SDS_P2;PMS_P1;PMS_P2;Temp;Humidity;BMP_temperature;BMP_pressure;BME280_temperature;BME280_humidity;BME280_pressure;Samples;Min_cycle;Max_cycle;Signal;HPM_P1;HPM_P2
2022/03/28 00:01:32;;;;;;;15.73;6.13;;;;;;;;;;5085369;28;20364;-81
2022/03/28 00:03:58;;;;;;;7.65;5.28;;;;;;;;;;5079442;28;20112;-82
2022/03/28 00:06:23;;;;;;;11.88;5.97;;;;;;;;;;5081894;28;20118;-81
2022/03/28 00:08:50;;;;;;;9.43;5.85;;;;;;;;;;5074394;28;20032;-82
2022/03/28 00:11:16;;;;;;;13.75;6.75;;;;;;;;;;5077137;28;20043;-81
2022/03/28 00:13:43;;;;;;;12.98;7.03;;;;;;;;;;5075879;28;20025;-81
2022/03/28 00:16:08;;;;;;;15.13;7.80;;;;;;;;;;5080218;28;20521;-81
2022/03/28 00:18:34;;;;;;;12.57;7.80;;;;;;;;;;5080217;28;20020;-81
2022/03/28 00:21:01;;;;;;;9.07;6.35;;;;;;;;;;5078969;28;20404;-81
2022/03/28 00:23:27;;;;;;;12.45;7.07;;;;;;;;;;5110698;27;20043;-82
2022/03/28 00:25:53;;;;;;;10.68;7.40;;;;;;;;;;5073370;28;20781;-81
2022/03/28 00:28:19;;;;;;;11.40;7.30;;;;;;;;;;5081056;28;20048;-82
2022/03/28 00:30:44;;;;;;;12.95;7.38;;;;;;;;;;5077939;28;20066;-81
2022/03/28 00:33:10;;;;;;;11.40;6.60;;;;;;;;;;5105317;28;20060;-82
2022/03/28 00:35:36;;;;;;;10.20;6.85;;;;;;;;;;5081763;28;20513;-82
2022/03/28 00:38:03;;;;;;;11.77;6.78;;;;;;;;;;5081210;28;20032;-82
2022/03/28 00:40:31;;;;;;;15.07;6.50;;;;;;;;;;5080760;28;20052;-83
2022/03/28 00:42:58;;;;;;;13.43;7.10;;;;;;;;;;5079391;28;20032;-81
2022/03/28 00:45:25;;;;;;;12.32;6.43;;;;;;;;;;5079666;28;20046;-82
2022/03/28 00:47:51;;;;;;;11.60;7.03;;;;;;;;;;5076521;28;20027;-82
2022/03/28 00:50:16;;;;;;;11.40;6.97;;;;;;;;;;5083793;28;20111;-82
2022/03/28 00:52:42;;;;;;;11.93;7.38;;;;;;;;;;5084364;28;20024;-81
2022/03/28 00:55:08;;;;;;;11.88;6.72;;;;;;;;;;5076891;28;20032;-82
2022/03/28 00:57:34;;;;;;;10.80;7.45;;;;;;;;;;5080555;28;20103;-81
2022/03/28 01:00:01;;;;;;;11.38;7.03;;;;;;;;;;5080477;28;20103;-82
2022/03/28 01:02:26;;;;;;;12.38;6.90;;;;;;;;;;5077054;28;20020;-81
2022/03/28 01:04:53;;;;;;;13.45;7.38;;;;;;;;;;5075846;28;20107;-81
2022/03/28 01:07:19;;;;;;;14.23;7.13;;;;;;;;;;5081236;28;20032;-81
2022/03/28 01:09:45;;;;;;;10.32;6.47;;;;;;;;;;5073962;28;20123;-82
2022/03/28 01:12:11;;;;;;;11.00;7.25;;;;;;;;;;5072455;28;20115;-82
2022/03/28 01:14:37;;;;;;;11.40;6.30;;;;;;;;;;5076035;28;20387;-82
2022/03/28 01:19:54;;;;;;;9.93;5.13;;;;;;;;;;5075039;28;20089;-81
2022/03/28 01:22:20;;;;;;;12.18;6.10;;;;;;;;;;5079322;28;20489;-81
2022/03/28 01:24:48;;;;;;;11.45;7.25;;;;;;;;;;5083373;28;20036;-82
2022/03/28 01:27:17;;;;;;;10.75;6.97;;;;;;;;;;5083495;28;20476;-83
2022/03/28 01:29:44;;;;;;;11.57;6.80;;;;;;;;;;5081843;28;21748;-82
2022/03/28 01:32:10;;;;;;;11.52;6.95;;;;;;;;;;5085790;28;20028;-82
2022/03/28 01:34:35;;;;;;;16.02;8.05;;;;;;;;;;5082853;28;20429;-83
2022/03/28 01:37:01;;;;;;;14.68;8.00;;;;;;;;;;5076431;28;21174;-84
2022/03/28 01:39:27;;;;;;;10.73;7.13;;;;;;;;;;5079448;28;20107;-83
2022/03/28 01:41:52;;;;;;;14.65;7.82;;;;;;;;;;5079460;28;20096;-83
2022/03/28 01:44:18;;;;;;;15.65;7.90;;;;;;;;;;5078404;28;20020;-82
2022/03/28 01:46:46;;;;;;;10.40;7.63;;;;;;;;;;5081393;28;20020;-83
2022/03/28 01:49:12;;;;;;;12.23;6.45;;;;;;;;;;5075284;28;20032;-82
2022/03/28 01:51:41;;;;;;;10.57;5.97;;;;;;;;;;5082968;28;20051;-84
2022/03/28 01:54:07;;;;;;;12.25;6.63;;;;;;;;;;5075475;28;20036;-82
2022/03/28 01:56:34;;;;;;;10.13;5.85;;;;;;;;;;5074147;28;20063;-83
2022/03/28 01:59:00;;;;;;;11.80;7.10;;;;;;;;;;5077371;28;20028;-83
2022/03/28 02:01:26;;;;;;;9.63;6.00;;;;;;;;;;5079911;28;20096;-83
2022/03/28 02:03:51;;;;;;;10.15;6.53;;;;;;;;;;5072029;28;20031;-82
2022/03/28 02:06:17;;;;;;;9.80;5.85;;;;;;;;;;5082766;28;20024;-81
2022/03/28 02:08:42;;;;;;;8.70;5.18;;;;;;;;;;5075458;28;20480;-82
2022/03/28 02:11:07;;;;;;;9.20;5.80;;;;;;;;;;5079450;28;20478;-81
2022/03/28 02:13:33;;;;;;;10.75;5.82;;;;;;;;;;5078065;28;20025;-82
2022/03/28 02:16:00;;;;;;;10.70;6.82;;;;;;;;;;5089001;28;20059;-81
2022/03/28 02:18:26;;;;;;;10.68;6.35;;;;;;;;;;5083554;28;20027;-81
2022/03/28 02:20:52;;;;;;;9.02;5.97;;;;;;;;;;5075758;28;20021;-82
2022/03/28 02:23:17;;;;;;;11.23;6.53;;;;;;;;;;5074304;28;20035;-81
2022/03/28 02:25:43;;;;;;;19.70;7.57;;;;;;;;;;5077177;28;20034;-82
2022/03/28 02:28:08;;;;;;;14.00;7.45;;;;;;;;;;5074994;28;20055;-82
2022/03/28 02:30:34;;;;;;;11.77;6.60;;;;;;;;;;5079217;28;20029;-82
2022/03/28 02:32:59;;;;;;;12.23;6.32;;;;;;;;;;5079279;28;20484;-81
2022/03/28 02:35:25;;;;;;;8.55;6.05;;;;;;;;;;5081581;28;20048;-82
2022/03/28 02:37:51;;;;;;;10.30;6.50;;;;;;;;;;5077391;28;20035;-82
2022/03/28 02:40:17;;;;;;;15.80;6.63;;;;;;;;;;5081242;28;20116;-84
2022/03/28 02:42:42;;;;;;;10.05;5.93;;;;;;;;;;5084469;28;20025;-82
2022/03/28 02:45:09;;;;;;;8.60;4.90;;;;;;;;;;5080450;28;20108;-83
2022/03/28 02:47:35;;;;;;;9.18;5.25;;;;;;;;;;5080456;28;20062;-83
2022/03/28 02:50:00;;;;;;;9.27;5.25;;;;;;;;;;5076859;28;20458;-82
2022/03/28 02:52:26;;;;;;;7.28;4.68;;;;;;;;;;5080695;28;20016;-82
2022/03/28 02:54:53;;;;;;;12.57;5.53;;;;;;;;;;5080635;28;20483;-82
2022/03/28 02:57:18;;;;;;;8.60;5.03;;;;;;;;;;5076563;28;20032;-82
2022/03/28 02:59:44;;;;;;;9.23;4.70;;;;;;;;;;5080329;28;20021;-82
2022/03/28 03:02:10;;;;;;;8.23;5.07;;;;;;;;;;5078524;28;20029;-82
2022/03/28 03:04:35;;;;;;;8.75;4.30;;;;;;;;;;5073422;28;20502;-82
2022/03/28 03:07:01;;;;;;;6.53;4.13;;;;;;;;;;5075028;28;20036;-82
2022/03/28 03:09:27;;;;;;;8.48;4.93;;;;;;;;;;5073589;28;20487;-82
2022/03/28 03:11:52;;;;;;;8.73;4.28;;;;;;;;;;5078718;28;20024;-82
2022/03/28 03:14:18;;;;;;;7.60;4.43;;;;;;;;;;5083624;28;20402;-82
2022/03/28 03:16:44;;;;;;;8.27;4.50;;;;;;;;;;5080240;28;20383;-82
2022/03/28 03:19:10;;;;;;;10.13;4.07;;;;;;;;;;5081321;28;20365;-82
2022/03/28 03:21:36;;;;;;;9.38;5.20;;;;;;;;;;5086312;28;20020;-82
2022/03/28 03:24:02;;;;;;;9.20;6.00;;;;;;;;;;5082990;28;20024;-82
2022/03/28 03:26:28;;;;;;;6.75;4.38;;;;;;;;;;5085917;28;20028;-82
2022/03/28 03:28:58;;;;;;;6.78;3.50;;;;;;;;;;5078868;28;20031;-82
2022/03/28 03:31:24;;;;;;;7.50;3.83;;;;;;;;;;5078134;28;20036;-82
2022/03/28 03:33:50;;;;;;;9.07;4.93;;;;;;;;;;5079870;28;20540;-82
2022/03/28 03:36:15;;;;;;;4.82;3.65;;;;;;;;;;5082529;28;20025;-81
2022/03/28 03:38:41;;;;;;;7.15;4.00;;;;;;;;;;5084463;28;20081;-82
2022/03/28 03:41:07;;;;;;;9.65;4.05;;;;;;;;;;5083154;28;20540;-82
2022/03/28 03:43:32;;;;;;;6.50;3.42;;;;;;;;;;5084628;28;20097;-81
2022/03/28 03:45:58;;;;;;;5.68;3.70;;;;;;;;;;5081015;28;20024;-82
2022/03/28 03:48:25;;;;;;;5.97;3.80;;;;;;;;;;5077695;28;20029;-81
2022/03/28 03:50:51;;;;;;;5.78;3.05;;;;;;;;;;5081955;28;20054;-82
2022/03/28 03:53:17;;;;;;;4.45;2.97;;;;;;;;;;5075626;28;20020;-82
2022/03/28 03:55:42;;;;;;;4.53;2.80;;;;;;;;;;5081492;28;20029;-82
2022/03/28 03:58:08;;;;;;;3.63;2.70;;;;;;;;;;5080448;28;20060;-83
2022/03/28 04:00:33;;;;;;;3.92;3.13;;;;;;;;;;5079656;28;20077;-82
2022/03/28 04:02:58;;;;;;;4.75;2.80;;;;;;;;;;5081524;28;20025;-81
2022/03/28 04:05:24;;;;;;;4.93;2.70;;;;;;;;;;5084151;28;20077;-82
2022/03/28 04:07:50;;;;;;;8.32;2.80;;;;;;;;;;5078004;28;20028;-81
2022/03/28 04:10:15;;;;;;;3.38;2.38;;;;;;;;;;5086823;28;20072;-81
2022/03/28 04:12:40;;;;;;;5.65;3.50;;;;;;;;;;5078256;28;20036;-83
2022/03/28 04:15:07;;;;;;;5.38;3.28;;;;;;;;;;5077867;28;20028;-82
2022/03/28 04:17:43;;;;;;;6.18;4.30;;;;;;;;;;5080569;28;20028;-82
2022/03/28 04:20:11;;;;;;;5.30;3.10;;;;;;;;;;5078028;28;20029;-83
2022/03/28 04:22:36;;;;;;;11.10;5.65;;;;;;;;;;5078822;28;20025;-81
2022/03/28 04:25:03;;;;;;;5.68;3.30;;;;;;;;;;5079948;28;20024;-82
2022/03/28 04:27:28;;;;;;;5.10;3.25;;;;;;;;;;5073854;28;20028;-82
2022/03/28 04:29:54;;;;;;;8.30;3.30;;;;;;;;;;5069872;28;20392;-82
2022/03/28 04:32:19;;;;;;;4.30;2.80;;;;;;;;;;5067533;28;20012;-82
2022/03/28 04:34:45;;;;;;;5.88;2.60;;;;;;;;;;5074509;28;20486;-82
2022/03/28 04:37:10;;;;;;;4.35;3.20;;;;;;;;;;5073344;28;20039;-81
2022/03/28 04:39:36;;;;;;;9.23;2.97;;;;;;;;;;5071147;28;20037;-82
2022/03/28 04:42:01;;;;;;;9.48;3.40;;;;;;;;;;5069804;28;20056;-83
2022/03/28 04:44:27;;;;;;;7.68;3.70;;;;;;;;;;5078061;28;20036;-82
2022/03/28 04:46:52;;;;;;;9.35;3.13;;;;;;;;;;5067102;28;20033;-82
2022/03/28 04:49:18;;;;;;;9.27;3.40;;;;;;;;;;5072941;28;20074;-81
2022/03/28 04:51:43;;;;;;;6.38;3.13;;;;;;;;;;5073189;28;20024;-81
2022/03/28 04:54:09;;;;;;;7.05;3.30;;;;;;;;;;5078020;28;20107;-81
2022/03/28 04:56:34;;;;;;;7.40;3.40;;;;;;;;;;5084628;28;20042;-81
2022/03/28 04:59:02;;;;;;;7.85;3.55;;;;;;;;;;5081179;28;20028;-80
2022/03/28 05:01:28;;;;;;;6.50;3.80;;;;;;;;;;5071281;28;20020;-81
2022/03/28 05:03:53;;;;;;;5.68;3.75;;;;;;;;;;5071171;28;20514;-82
2022/03/28 05:06:18;;;;;;;7.38;4.05;;;;;;;;;;5074252;28;20021;-82
2022/03/28 05:08:44;;;;;;;6.38;4.38;;;;;;;;;;5081690;28;20024;-82
2022/03/28 05:11:09;;;;;;;6.32;3.42;;;;;;;;;;5082877;28;20024;-82
2022/03/28 05:13:35;;;;;;;8.32;3.67;;;;;;;;;;5077135;28;20021;-82
2022/03/28 05:16:00;;;;;;;8.85;4.70;;;;;;;;;;5070620;28;20039;-82
2022/03/28 05:18:26;;;;;;;7.18;4.68;;;;;;;;;;5078645;28;20029;-81
2022/03/28 05:20:51;;;;;;;9.18;4.97;;;;;;;;;;5082092;28;20028;-82
2022/03/28 05:23:17;;;;;;;20.00;7.85;;;;;;;;;;5077204;28;20031;-83
2022/03/28 05:25:43;;;;;;;16.33;8.57;;;;;;;;;;5075616;28;20116;-83
2022/03/28 05:28:09;;;;;;;25.17;12.13;;;;;;;;;;5083331;28;20110;-83
2022/03/28 05:30:35;;;;;;;27.30;12.93;;;;;;;;;;5077927;28;20070;-82
2022/03/28 05:33:01;;;;;;;24.85;12.80;;;;;;;;;;5068406;28;20736;-81
2022/03/28 05:35:27;;;;;;;31.50;12.95;;;;;;;;;;5071324;28;20028;-82
2022/03/28 05:37:53;;;;;;;30.40;13.90;;;;;;;;;;5070918;28;20046;-81
2022/03/28 05:40:19;;;;;;;20.67;11.90;;;;;;;;;;5070802;28;20480;-81
2022/03/28 05:42:44;;;;;;;23.77;12.57;;;;;;;;;;5079644;28;20051;-81
2022/03/28 05:45:11;;;;;;;21.05;11.55;;;;;;;;;;5069559;28;20020;-82
2022/03/28 05:47:37;;;;;;;25.95;14.27;;;;;;;;;;5080126;28;20449;-81
2022/03/28 05:50:03;;;;;;;32.67;14.93;;;;;;;;;;5074426;28;20050;-83
2022/03/28 05:52:29;;;;;;;29.10;14.90;;;;;;;;;;5074986;28;20031;-82
2022/03/28 05:54:54;;;;;;;27.52;15.23;;;;;;;;;;5082344;28;20427;-82
2022/03/28 05:57:20;;;;;;;36.88;15.10;;;;;;;;;;5083531;28;20028;-81
2022/03/28 05:59:45;;;;;;;33.03;15.38;;;;;;;;;;5073198;28;20027;-82
2022/03/28 06:02:10;;;;;;;27.05;13.57;;;;;;;;;;5075071;28;20078;-82
2022/03/28 06:04:36;;;;;;;24.27;13.52;;;;;;;;;;5071415;28;20369;-81
2022/03/28 06:07:02;;;;;;;28.67;13.10;;;;;;;;;;5082919;28;20104;-82
2022/03/28 06:09:27;;;;;;;22.05;14.27;;;;;;;;;;5080112;28;20461;-81
2022/03/28 06:11:53;;;;;;;32.88;13.80;;;;;;;;;;5079887;28;20470;-82
2022/03/28 06:14:18;;;;;;;22.77;13.80;;;;;;;;;;5078909;28;20073;-81
2022/03/28 06:16:44;;;;;;;24.05;13.98;;;;;;;;;;5079574;28;20105;-81
2022/03/28 06:19:09;;;;;;;22.80;12.82;;;;;;;;;;5075705;28;20024;-81
2022/03/28 06:21:35;;;;;;;24.63;13.32;;;;;;;;;;5071889;28;20040;-82
2022/03/28 06:24:00;;;;;;;31.67;12.50;;;;;;;;;;5076236;28;20032;-82
2022/03/28 06:26:26;;;;;;;20.15;11.18;;;;;;;;;;5079858;28;20035;-82
2022/03/28 06:28:52;;;;;;;17.30;10.43;;;;;;;;;;5075185;28;20075;-81
2022/03/28 06:31:17;;;;;;;19.80;12.10;;;;;;;;;;5080898;28;20032;-83
2022/03/28 06:33:43;;;;;;;27.45;12.70;;;;;;;;;;5075569;28;20032;-82
2022/03/28 06:36:09;;;;;;;20.35;12.30;;;;;;;;;;5079180;28;20070;-83
2022/03/28 06:38:35;;;;;;;21.17;12.55;;;;;;;;;;5077229;28;20075;-81
2022/03/28 06:41:01;;;;;;;24.60;12.07;;;;;;;;;;5077221;28;20373;-83
2022/03/28 06:43:27;;;;;;;26.20;12.82;;;;;;;;;;5081608;28;20020;-83
2022/03/28 06:45:52;;;;;;;18.08;10.95;;;;;;;;;;5086974;28;20151;-83
2022/03/28 06:48:19;;;;;;;21.42;10.45;;;;;;;;;;5077681;28;20036;-83
2022/03/28 06:50:45;;;;;;;18.45;9.75;;;;;;;;;;5077030;28;20525;-83
2022/03/28 06:53:10;;;;;;;17.42;9.27;;;;;;;;;;5083700;28;20099;-82
2022/03/28 06:55:36;;;;;;;18.80;8.35;;;;;;;;;;5081907;28;20388;-82
2022/03/28 06:58:01;;;;;;;18.42;8.27;;;;;;;;;;5083940;28;20028;-83
2022/03/28 07:00:27;;;;;;;19.38;8.57;;;;;;;;;;5075346;28;20039;-81
2022/03/28 07:02:52;;;;;;;20.27;13.00;;;;;;;;;;5081091;28;20031;-84
2022/03/28 07:05:18;;;;;;;57.75;32.50;;;;;;;;;;5078874;28;20032;-82
2022/03/28 07:07:46;;;;;;;31.20;18.50;;;;;;;;;;5077513;28;20024;-81
2022/03/28 07:10:13;;;;;;;14.10;9.05;;;;;;;;;;5074885;28;20032;-84
2022/03/28 07:12:38;;;;;;;13.65;8.70;;;;;;;;;;5088858;28;20027;-82
2022/03/28 07:15:07;;;;;;;14.10;8.63;;;;;;;;;;5077657;28;20502;-86
2022/03/28 07:17:56;;;;;;;12.82;8.85;;;;;;;;;;5084553;28;20032;-81
2022/03/28 07:20:23;;;;;;;23.42;9.25;;;;;;;;;;5081486;28;20055;-82
2022/03/28 07:22:49;;;;;;;15.25;8.52;;;;;;;;;;5074387;28;20082;-81
2022/03/28 07:25:15;;;;;;;17.27;8.73;;;;;;;;;;5076147;28;20491;-83
2022/03/28 07:27:41;;;;;;;15.60;9.00;;;;;;;;;;5071718;28;20115;-81
2022/03/28 07:30:08;;;;;;;21.50;8.32;;;;;;;;;;5082851;28;20028;-84
2022/03/28 07:32:34;;;;;;;16.55;9.25;;;;;;;;;;5088869;28;20787;-79
2022/03/28 07:35:00;;;;;;;15.43;8.20;;;;;;;;;;5075443;28;20115;-80
2022/03/28 07:37:26;;;;;;;14.27;8.32;;;;;;;;;;5070148;28;20111;-79
2022/03/28 07:39:51;;;;;;;14.52;7.65;;;;;;;;;;5083317;28;20052;-78
2022/03/28 07:42:17;;;;;;;13.05;7.65;;;;;;;;;;5068869;28;20029;-79
2022/03/28 07:44:42;;;;;;;15.90;8.13;;;;;;;;;;5078490;28;20028;-79
2022/03/28 07:47:08;;;;;;;15.00;8.63;;;;;;;;;;5075878;28;20045;-80
2022/03/28 07:49:36;;;;;;;16.10;9.02;;;;;;;;;;5078049;28;20063;-81
2022/03/28 07:52:03;;;;;;;12.25;7.95;;;;;;;;;;5076740;28;20051;-81
2022/03/28 07:54:29;;;;;;;17.92;8.93;;;;;;;;;;5078617;28;20027;-80
2022/03/28 07:56:55;;;;;;;19.77;8.73;;;;;;;;;;5069685;28;20039;-82
2022/03/28 07:59:21;;;;;;;24.08;10.52;;;;;;;;;;5072562;28;20115;-82
2022/03/28 08:01:46;;;;;;;18.73;10.68;;;;;;;;;;5071670;28;20024;-80
2022/03/28 08:04:12;;;;;;;20.33;11.02;;;;;;;;;;5068254;28;20040;-80
2022/03/28 08:06:37;;;;;;;14.73;9.57;;;;;;;;;;5069759;28;20031;-79
2022/03/28 08:09:04;;;;;;;15.00;8.70;;;;;;;;;;5068300;28;20024;-80
2022/03/28 08:11:30;;;;;;;18.48;9.40;;;;;;;;;;5069535;28;20055;-79
2022/03/28 08:13:56;;;;;;;17.83;9.10;;;;;;;;;;5071206;28;20120;-78
2022/03/28 08:16:22;;;;;;;18.92;10.05;;;;;;;;;;5074145;28;20464;-82
2022/03/28 08:18:47;;;;;;;17.15;9.02;;;;;;;;;;5071681;28;20081;-79
2022/03/28 08:21:13;;;;;;;21.13;10.23;;;;;;;;;;5072926;28;20042;-80
2022/03/28 08:23:38;;;;;;;19.60;9.63;;;;;;;;;;5075762;28;20027;-81
2022/03/28 08:26:04;;;;;;;18.92;9.63;;;;;;;;;;5076007;28;20028;-81
2022/03/28 08:28:30;;;;;;;16.73;9.95;;;;;;;;;;5078915;28;20025;-82
2022/03/28 08:30:56;;;;;;;23.77;10.32;;;;;;;;;;5079668;28;20048;-81
2022/03/28 08:33:21;;;;;;;19.77;10.55;;;;;;;;;;5077348;28;20079;-80
2022/03/28 08:35:47;;;;;;;17.77;10.45;;;;;;;;;;5075396;28;20032;-80
2022/03/28 08:38:12;;;;;;;18.35;11.75;;;;;;;;;;5077782;28;20356;-80
2022/03/28 08:40:41;;;;;;;21.75;10.25;;;;;;;;;;5079100;28;20029;-81
2022/03/28 08:43:08;;;;;;;19.83;9.55;;;;;;;;;;5081871;28;20020;-80
2022/03/28 08:45:37;;;;;;;22.40;11.50;;;;;;;;;;5072892;28;20026;-80
2022/03/28 08:48:06;;;;;;;17.25;10.00;;;;;;;;;;5077835;28;20031;-80
2022/03/28 08:50:33;;;;;;;15.50;10.45;;;;;;;;;;5067754;28;20036;-80
2022/03/28 08:52:58;;;;;;;19.17;9.80;;;;;;;;;;5076910;28;20093;-80
2022/03/28 08:55:24;;;;;;;17.20;10.02;;;;;;;;;;5085439;28;20036;-79
2022/03/28 08:57:50;;;;;;;17.08;11.10;;;;;;;;;;5077408;28;20040;-79
2022/03/28 09:00:15;;;;;;;17.33;9.85;;;;;;;;;;5072182;28;20024;-79
2022/03/28 09:02:47;;;;;;;19.63;10.18;;;;;;;;;;5076971;28;20059;-80
2022/03/28 09:05:14;;;;;;;22.25;10.75;;;;;;;;;;5081852;28;20031;-81
2022/03/28 09:07:40;;;;;;;14.68;9.98;;;;;;;;;;5070666;28;20081;-79
2022/03/28 09:10:11;;;;;;;17.92;9.93;;;;;;;;;;5078584;28;20044;-81
2022/03/28 09:12:41;;;;;;;18.67;9.48;;;;;;;;;;5073949;28;20036;-81
2022/03/28 09:15:14;;;;;;;;;;;;;;;;;;5080748;28;20040;-80
2022/03/28 09:17:40;;;;;;;17.60;9.70;;;;;;;;;;5080126;28;19916;-82
2022/03/28 09:20:07;;;;;;;16.83;9.50;;;;;;;;;;5063984;28;20032;-81
2022/03/28 09:22:35;;;;;;;17.92;10.13;;;;;;;;;;5067819;28;20071;-82
2022/03/28 09:25:12;;;;;;;12.90;10.25;;;;;;;;;;5083910;28;20543;-83
2022/03/28 09:27:40;;;;;;;19.75;11.13;;;;;;;;;;5073222;28;20056;-82
2022/03/28 09:30:11;;;;;;;20.23;10.27;;;;;;;;;;5077668;28;20464;-84
2022/03/28 09:32:40;;;;;;;17.42;10.23;;;;;;;;;;5073768;28;20880;-83
2022/03/28 09:35:19;;;;;;;19.98;9.88;;;;;;;;;;5074200;28;20024;-84
2022/03/28 09:37:58;;;;;;;21.92;10.43;;;;;;;;;;5081737;28;20452;-82
2022/03/28 09:40:37;;;;;;;21.45;10.88;;;;;;;;;;5076828;28;20052;-83
2022/03/28 09:43:17;;;;;;;14.05;10.25;;;;;;;;;;5079719;28;20020;-82
2022/03/28 09:45:53;;;;;;;16.50;10.77;;;;;;;;;;5079674;28;20070;-84
2022/03/28 09:48:20;;;;;;;16.92;10.55;;;;;;;;;;5078489;28;20021;-81
2022/03/28 09:50:48;;;;;;;17.50;12.20;;;;;;;;;;5078241;28;20020;-83
2022/03/28 09:53:31;;;;;;;18.10;10.77;;;;;;;;;;5077240;28;20027;-83
2022/03/28 09:56:01;;;;;;;15.98;9.40;;;;;;;;;;5080438;28;20504;-83
2022/03/28 09:58:45;;;;;;;15.32;10.07;;;;;;;;;;5081415;28;20027;-83
2022/03/28 10:01:19;;;;;;;17.35;10.82;;;;;;;;;;5077831;28;20039;-84
2022/03/28 10:03:48;;;;;;;14.93;10.80;;;;;;;;;;5075627;28;20481;-84
2022/03/28 10:06:14;;;;;;;16.38;9.82;;;;;;;;;;5083926;28;20051;-83
2022/03/28 10:08:40;;;;;;;17.27;9.10;;;;;;;;;;5077718;28;20027;-84
2022/03/28 10:11:06;;;;;;;19.00;10.07;;;;;;;;;;5078091;28;20028;-83
2022/03/28 10:13:33;;;;;;;15.32;10.13;;;;;;;;;;5084434;28;20124;-85
2022/03/28 10:16:00;;;;;;;18.13;9.93;;;;;;;;;;5076306;28;20021;-83
2022/03/28 10:18:36;;;;;;;14.80;8.98;;;;;;;;;;5085808;28;20035;-85
2022/03/28 10:21:08;;;;;;;16.63;8.82;;;;;;;;;;5085542;28;20074;-84
2022/03/28 10:23:42;;;;;;;16.50;9.45;;;;;;;;;;5083526;28;20051;-85
2022/03/28 10:26:09;;;;;;;13.75;8.95;;;;;;;;;;5085886;28;20032;-83
2022/03/28 10:28:35;;;;;;;14.50;9.68;;;;;;;;;;5083395;28;20024;-83
2022/03/28 10:31:17;;;;;;;15.27;9.98;;;;;;;;;;5080898;28;20034;-84
2022/03/28 10:33:51;;;;;;;16.17;9.40;;;;;;;;;;5080126;28;20057;-83
2022/03/28 10:36:28;;;;;;;17.42;9.60;;;;;;;;;;5076869;28;20028;-84
2022/03/28 10:38:57;;;;;;;17.42;9.27;;;;;;;;;;5076741;28;20499;-81
2022/03/28 10:41:25;;;;;;;18.20;10.50;;;;;;;;;;5079548;28;20047;-81
2022/03/28 10:43:51;;;;;;;20.85;9.82;;;;;;;;;;5080207;28;20024;-84
2022/03/28 10:46:19;;;;;;;16.20;10.07;;;;;;;;;;5078259;28;20056;-84
2022/03/28 10:48:54;;;;;;;19.52;10.27;;;;;;;;;;5079889;28;20017;-85
2022/03/28 10:51:24;;;;;;;20.42;9.95;;;;;;;;;;5084920;28;20468;-84
2022/03/28 10:53:53;;;;;;;;;;;;;;;;;;5078037;28;20107;-83
2022/03/28 10:56:27;;;;;;;15.18;8.23;;;;;;;;;;5084394;28;20390;-83
2022/03/28 10:59:19;;;;;;;15.27;8.90;;;;;;;;;;5084476;28;20032;-83
2022/03/28 11:01:49;;;;;;;18.50;9.20;;;;;;;;;;5085987;28;20032;-85
2022/03/28 11:04:23;;;;;;;13.10;9.10;;;;;;;;;;5085222;28;20052;-85
2022/03/28 11:07:06;;;;;;;15.82;9.57;;;;;;;;;;5082436;28;20036;-83
2022/03/28 11:09:41;;;;;;;14.27;9.30;;;;;;;;;;5078494;28;20428;-84
2022/03/28 11:12:29;;;;;;;11.55;8.20;;;;;;;;;;5088376;28;20032;-81
2022/03/28 11:15:08;;;;;;;16.17;9.27;;;;;;;;;;5072140;28;20041;-84
2022/03/28 11:17:38;;;;;;;16.13;8.30;;;;;;;;;;5077708;28;20081;-82
2022/03/28 11:20:06;;;;;;;;;;;;;;;;;;5087223;28;20051;-83
2022/03/28 11:22:44;;;;;;;16.02;8.93;;;;;;;;;;5079180;28;20437;-84
2022/03/28 11:25:38;;;;;;;14.43;9.13;;;;;;;;;;5082395;28;20528;-84
2022/03/28 11:28:04;;;;;;;18.90;9.23;;;;;;;;;;5074538;28;20490;-84
2022/03/28 11:30:29;;;;;;;15.00;8.98;;;;;;;;;;5077100;28;20025;-81
2022/03/28 11:32:55;;;;;;;13.57;8.73;;;;;;;;;;5077194;28;20116;-81
2022/03/28 11:35:21;;;;;;;20.25;11.23;;;;;;;;;;5082086;28;20472;-82
2022/03/28 11:37:48;;;;;;;19.92;9.63;;;;;;;;;;5080348;28;20085;-82
2022/03/28 11:40:14;;;;;;;14.43;9.10;;;;;;;;;;5080511;28;20101;-83
2022/03/28 11:42:45;;;;;;;15.93;9.20;;;;;;;;;;5079016;28;20399;-84
2022/03/28 11:45:12;;;;;;;17.80;10.15;;;;;;;;;;5083287;28;20024;-83
2022/03/28 11:47:50;;;;;;;21.92;10.48;;;;;;;;;;5078689;28;20022;-83
2022/03/28 11:50:16;;;;;;;14.35;9.48;;;;;;;;;;5077592;28;20074;-90
2022/03/28 11:52:48;;;;;;;18.95;10.68;;;;;;;;;;5086266;28;20024;-85
2022/03/28 11:55:24;;;;;;;14.95;8.60;;;;;;;;;;5079831;28;20467;-87
2022/03/28 12:00:36;;;;;;;16.90;9.23;;;;;;;;;;5081952;28;20066;-86
2022/03/28 12:03:03;;;;;;;15.98;9.38;;;;;;;;;;5082034;28;20024;-86
2022/03/28 12:05:32;;;;;;;20.08;11.60;;;;;;;;;;5081325;28;20024;-86
2022/03/28 12:08:01;;;;;;;13.52;8.80;;;;;;;;;;5086356;28;20464;-88
2022/03/28 12:10:29;;;;;;;21.52;11.38;;;;;;;;;;5079827;28;20101;-86
2022/03/28 12:12:57;;;;;;;17.73;9.60;;;;;;;;;;5084270;28;20027;-87
2022/03/28 12:15:31;;;;;;;21.27;10.98;;;;;;;;;;5083554;28;20036;-86
2022/03/28 12:17:59;;;;;;;18.92;9.65;;;;;;;;;;5078939;28;20035;-85
2022/03/28 12:20:33;;;;;;;14.70;8.20;;;;;;;;;;5088626;28;20034;-84
2022/03/28 12:22:58;;;;;;;17.70;10.25;;;;;;;;;;5078617;28;20357;-84
2022/03/28 12:25:37;;;;;;;21.15;9.05;;;;;;;;;;5077196;28;20081;-84
2022/03/28 12:28:06;;;;;;;26.25;15.02;;;;;;;;;;5076446;28;20451;-86
2022/03/28 12:30:41;;;;;;;21.58;11.77;;;;;;;;;;5078861;28;20062;-85
2022/03/28 12:33:11;;;;;;;21.50;11.63;;;;;;;;;;5077008;28;20028;-85
2022/03/28 12:35:48;;;;;;;14.25;9.98;;;;;;;;;;5079140;28;20034;-87
2022/03/28 12:38:24;;;;;;;28.95;16.40;;;;;;;;;;5079233;28;20025;-85
2022/03/28 12:40:55;;;;;;;18.70;10.00;;;;;;;;;;5072287;28;20073;-85
2022/03/28 12:43:23;;;;;;;21.02;10.73;;;;;;;;;;5075829;28;20050;-87
2022/03/28 12:45:52;;;;;;;42.00;22.67;;;;;;;;;;5074269;28;20021;-84
2022/03/28 12:48:18;;;;;;;21.73;13.02;;;;;;;;;;5071766;28;20416;-84
2022/03/28 12:50:57;;;;;;;16.45;9.82;;;;;;;;;;5069852;28;20016;-83
2022/03/28 12:53:29;;;;;;;29.35;15.00;;;;;;;;;;5080905;28;20523;-85
2022/03/28 12:56:41;;;;;;;17.13;10.35;;;;;;;;;;5074087;28;20055;-84
2022/03/28 12:59:06;;;;;;;29.48;16.92;;;;;;;;;;5084168;28;20028;-84
2022/03/28 13:01:33;;;;;;;35.10;19.33;;;;;;;;;;5077151;28;20043;-82
2022/03/28 13:04:16;;;;;;;28.35;15.13;;;;;;;;;;5068524;28;20488;-83
2022/03/28 13:06:44;;;;;;;17.70;11.15;;;;;;;;;;5069979;28;20024;-84
2022/03/28 13:09:20;;;;;;;19.48;10.50;;;;;;;;;;5067814;28;20036;-85
2022/03/28 13:11:47;;;;;;;18.80;11.25;;;;;;;;;;5076468;28;20032;-84
2022/03/28 13:14:28;;;;;;;12.88;8.38;;;;;;;;;;5079123;28;20024;-82
2022/03/28 13:17:07;;;;;;;15.10;9.05;;;;;;;;;;5074619;28;20027;-83
2022/03/28 13:19:32;;;;;;;20.87;9.53;;;;;;;;;;5073224;28;20028;-84
2022/03/28 13:21:58;;;;;;;14.02;9.43;;;;;;;;;;5080798;28;20024;-83
2022/03/28 13:24:28;;;;;;;16.23;8.45;;;;;;;;;;5073341;28;20017;-85
2022/03/28 13:28:01;;;;;;;;;;;;;;;;;;5074606;28;20031;-84
2022/03/28 13:29:42;;;;;;;26.30;13.95;;;;;;;;;;5069376;28;20311;-82
2022/03/28 13:32:07;;;;;;;15.68;8.93;;;;;;;;;;5073695;28;20043;-83
2022/03/28 13:34:33;;;;;;;13.70;8.43;;;;;;;;;;5067201;28;20099;-82
2022/03/28 13:36:58;;;;;;;15.07;7.78;;;;;;;;;;5069745;28;20074;-80
2022/03/28 13:39:24;;;;;;;15.05;9.75;;;;;;;;;;5078388;28;20052;-80
2022/03/28 13:41:50;;;;;;;12.65;8.68;;;;;;;;;;5074901;28;20129;-79
2022/03/28 13:44:17;;;;;;;12.63;8.80;;;;;;;;;;5070751;28;20560;-81
2022/03/28 13:46:43;;;;;;;11.98;7.43;;;;;;;;;;5068116;28;20385;-82
2022/03/28 13:49:08;;;;;;;13.52;8.65;;;;;;;;;;5066303;28;20025;-82
2022/03/28 13:51:34;;;;;;;16.73;8.60;;;;;;;;;;5066224;28;20025;-82
2022/03/28 13:54:00;;;;;;;12.77;8.23;;;;;;;;;;5065886;28;20021;-82
2022/03/28 13:56:27;;;;;;;12.48;7.93;;;;;;;;;;5077879;28;20024;-81
2022/03/28 13:58:53;;;;;;;11.90;7.50;;;;;;;;;;5071073;28;20032;-81
2022/03/28 14:01:18;;;;;;;13.60;8.43;;;;;;;;;;5070926;28;20109;-83
2022/03/28 14:03:45;;;;;;;13.95;8.48;;;;;;;;;;5076306;28;20024;-84
2022/03/28 14:06:11;;;;;;;17.58;8.60;;;;;;;;;;5071131;28;20025;-81
2022/03/28 14:08:37;;;;;;;14.10;8.57;;;;;;;;;;5069571;28;20433;-79
2022/03/28 14:11:10;;;;;;;14.38;8.10;;;;;;;;;;5076676;28;20460;-79
2022/03/28 14:13:35;;;;;;;14.32;8.40;;;;;;;;;;5064201;28;20021;-80
2022/03/28 14:16:01;;;;;;;17.48;9.02;;;;;;;;;;5067374;28;20103;-80
2022/03/28 14:18:27;;;;;;;17.00;9.30;;;;;;;;;;5064170;28;20124;-80
2022/03/28 14:20:53;;;;;;;22.33;13.80;;;;;;;;;;5063260;28;20037;-79
2022/03/28 14:23:19;;;;;;;30.30;16.80;;;;;;;;;;5063263;28;20078;-80
2022/03/28 14:25:44;;;;;;;13.70;7.90;;;;;;;;;;5057665;28;20040;-79
2022/03/28 14:28:10;;;;;;;25.58;12.32;;;;;;;;;;5066180;28;20094;-81
2022/03/28 14:30:36;;;;;;;22.10;10.80;;;;;;;;;;5072702;28;20472;-80
2022/03/28 14:33:02;;;;;;;15.43;8.02;;;;;;;;;;5070498;28;20762;-81
2022/03/28 14:35:28;;;;;;;18.80;8.75;;;;;;;;;;5061208;28;20021;-81
2022/03/28 14:37:55;;;;;;;11.68;7.18;;;;;;;;;;5066133;28;20028;-80
2022/03/28 14:40:21;;;;;;;10.25;7.03;;;;;;;;;;5064258;28;20203;-81